55°F Temp
52°F Dewpoint
% Humidity
Temperature
MPH
0 KM/H
KTS
Calm
Due North

Wind Speed
Light Rain
Showers
Pressure 1016.22 (hPa) - 30.01 (in)
Visibility 10.0 (mi) - 16.1 (km)

Current Conditions
KPAE
Location 8(mi)
Metar :KPAE 091153Z AUTO 00000KT 10SM -RA SCT043 BKN050 OVC100 13/11 A3001 RMK AO2 RAB42 SLP161 P0000 60000 T01330111 10133 20128 57006
Thu 9th July 04:53 am

Airport
  Metar Aviation API Data Provided by https://www.checkwx.com/ PHP scripts by weather34.com ©2020